createdAt,value
2024-05-09T00:00:22.315Z,60.5812
2024-05-09T00:01:18.970Z,56.5828
2024-05-09T00:02:21.490Z,57.0607
2024-05-09T00:03:24.061Z,56.9665
2024-05-09T00:04:26.635Z,57.0519
2024-05-09T00:05:29.365Z,56.2666
2024-05-09T00:06:31.867Z,58.6396
2024-05-09T00:07:34.368Z,57.4361
2024-05-09T00:08:37.219Z,57.4253
2024-05-09T00:09:39.522Z,56.0822
2024-05-09T00:10:42.206Z,62.0011
2024-05-09T00:11:44.733Z,60.9439
2024-05-09T00:12:47.317Z,58.3220
2024-05-09T00:13:49.872Z,56.7693
2024-05-09T00:14:52.634Z,56.1117
2024-05-09T00:15:55.010Z,59.1603
2024-05-09T00:16:57.649Z,57.3520
2024-05-09T00:18:00.402Z,60.4712
2024-05-09T00:19:02.857Z,56.9483
2024-05-09T00:20:14.245Z,58.1139
2024-05-09T00:21:07.978Z,57.7186
2024-05-09T00:22:10.522Z,57.4394
2024-05-09T00:23:13.723Z,60.9119
2024-05-09T00:24:15.685Z,58.5836
2024-05-09T00:25:18.296Z,57.3468
2024-05-09T00:26:20.911Z,56.0512
2024-05-09T00:27:23.466Z,59.3535
2024-05-09T00:28:26.048Z,61.6182
2024-05-09T00:29:28.710Z,59.0045
2024-05-09T00:30:34.979Z,59.7719
2024-05-09T00:31:33.767Z,63.5354
2024-05-09T00:32:36.605Z,62.7817
2024-05-09T00:33:39.139Z,59.2241
2024-05-09T00:34:41.512Z,58.7118
2024-05-09T00:35:44.101Z,62.2559
2024-05-09T00:36:46.679Z,60.6819
2024-05-09T00:37:49.254Z,59.2553
2024-05-09T00:38:51.815Z,58.9389
2024-05-09T00:39:54.415Z,60.5662
2024-05-09T00:40:57.038Z,58.5055
2024-05-09T00:41:59.583Z,60.7473
2024-05-09T00:43:02.148Z,58.4412
2024-05-09T00:44:04.769Z,61.7287
2024-05-09T00:45:07.306Z,63.1812
2024-05-09T00:46:09.923Z,58.3967
2024-05-09T00:47:12.555Z,59.7013
2024-05-09T00:48:17.721Z,60.3328
2024-05-09T00:49:17.794Z,59.8726
2024-05-09T00:50:29.354Z,59.1061
2024-05-09T00:51:22.866Z,61.0576
2024-05-09T00:52:25.406Z,59.1418
2024-05-09T00:53:28.055Z,62.0142
2024-05-09T00:54:30.551Z,57.6814
2024-05-09T00:55:33.171Z,59.5730
2024-05-09T00:56:35.807Z,63.1922
2024-05-09T00:57:38.300Z,60.7234
2024-05-09T00:58:40.894Z,60.9207
2024-05-09T00:59:43.466Z,62.8414
2024-05-09T01:00:46.162Z,63.6581
2024-05-09T01:01:48.774Z,65.4210
2024-05-09T01:02:51.304Z,64.3178
2024-05-09T01:03:54.054Z,64.6422
2024-05-09T01:04:56.463Z,64.2367
2024-05-09T01:05:59.074Z,60.9097
2024-05-09T01:07:01.600Z,64.9070
2024-05-09T01:08:04.212Z,64.8709
2024-05-09T01:09:06.748Z,62.8876
2024-05-09T01:10:14.039Z,60.5217
2024-05-09T01:11:11.966Z,59.9344
2024-05-09T01:12:14.680Z,59.8532
2024-05-09T01:13:17.127Z,63.4594
2024-05-09T01:14:19.690Z,61.8419
2024-05-09T01:15:22.207Z,62.2693
2024-05-09T01:16:24.799Z,62.6555
2024-05-09T01:17:27.512Z,63.7264
2024-05-09T01:18:30.089Z,62.4009
2024-05-09T01:19:32.833Z,62.4140
2024-05-09T01:20:41.514Z,60.5109
2024-05-09T01:21:37.717Z,63.8411
2024-05-09T01:22:40.300Z,66.6460
2024-05-09T01:23:42.977Z,63.5348
2024-05-09T01:24:45.452Z,61.8981
2024-05-09T01:25:48.090Z,61.7195
2024-05-09T01:26:50.621Z,60.4168
2024-05-09T01:27:53.207Z,63.5078
2024-05-09T01:28:55.830Z,69.0575
2024-05-09T01:29:58.368Z,61.9708
2024-05-09T01:31:01.007Z,60.2929
2024-05-09T01:32:03.637Z,63.1090
2024-05-09T01:33:07.967Z,62.2055
2024-05-09T01:34:08.806Z,61.9534
2024-05-09T01:35:11.391Z,59.1964
2024-05-09T01:36:13.946Z,61.3886
2024-05-09T01:37:16.559Z,64.6469
2024-05-09T01:38:19.136Z,64.6354
2024-05-09T01:39:21.705Z,61.4538
2024-05-09T01:40:33.489Z,67.5126
2024-05-09T01:41:26.946Z,66.3701
2024-05-09T01:42:29.453Z,65.2726
2024-05-09T01:43:32.051Z,59.0526
2024-05-09T01:44:34.692Z,65.1468
2024-05-09T01:45:37.207Z,66.3963
2024-05-09T01:46:39.821Z,61.0674
2024-05-09T01:47:42.693Z,62.4203
2024-05-09T01:48:45.028Z,64.9769
2024-05-09T01:49:47.637Z,61.3255
2024-05-09T01:50:50.156Z,62.0427
2024-05-09T01:51:52.716Z,62.4835
2024-05-09T01:52:55.338Z,63.7862
2024-05-09T01:53:57.905Z,63.5091
2024-05-09T01:55:03.524Z,64.9994
2024-05-09T01:56:03.166Z,63.3767
2024-05-09T01:57:05.704Z,62.1014
2024-05-09T01:58:08.210Z,63.8775
2024-05-09T01:59:10.857Z,64.3091
2024-05-09T02:00:18.798Z,63.8305
2024-05-09T02:01:16.027Z,65.0250
2024-05-09T02:02:18.701Z,68.4865
2024-05-09T02:03:21.472Z,65.7499
2024-05-09T02:04:23.941Z,67.5342
2024-05-09T02:05:26.353Z,64.6142
2024-05-09T02:06:28.908Z,65.1469
2024-05-09T02:07:31.497Z,66.8250
2024-05-09T02:08:34.222Z,61.4759
2024-05-09T02:09:36.694Z,63.5264
2024-05-09T02:10:39.270Z,66.6960
2024-05-09T02:11:41.951Z,63.7576
2024-05-09T02:12:44.423Z,63.3477
2024-05-09T02:13:47.017Z,65.9900
2024-05-09T02:14:49.714Z,66.3869
2024-05-09T02:15:52.262Z,66.6270
2024-05-09T02:16:54.831Z,65.9269
2024-05-09T02:17:57.479Z,68.0733
2024-05-09T02:19:00.013Z,68.3257
2024-05-09T02:20:02.765Z,68.9492
2024-05-09T02:21:05.256Z,62.3851
2024-05-09T02:22:07.681Z,63.9237
2024-05-09T02:23:10.368Z,62.7821
2024-05-09T02:24:12.861Z,63.6272
2024-05-09T02:25:15.557Z,64.0027
2024-05-09T02:26:18.132Z,65.1700
2024-05-09T02:27:20.631Z,64.5011
2024-05-09T02:28:23.301Z,63.0720
2024-05-09T02:29:25.916Z,63.0568
2024-05-09T02:30:36.373Z,64.4334
2024-05-09T02:31:30.958Z,65.2578
2024-05-09T02:32:33.696Z,65.7673
2024-05-09T02:33:36.479Z,69.3596
2024-05-09T02:34:38.848Z,66.5804
2024-05-09T02:35:41.455Z,61.9771
2024-05-09T02:36:43.873Z,65.7284
2024-05-09T02:37:46.664Z,68.4491
2024-05-09T02:38:49.043Z,68.7266
2024-05-09T02:39:51.625Z,65.2395
2024-05-09T02:40:54.234Z,65.6636
2024-05-09T02:41:56.793Z,65.7514
2024-05-09T02:42:59.438Z,67.0428
2024-05-09T02:44:02.021Z,69.3395
2024-05-09T02:45:04.536Z,64.1553
2024-05-09T02:46:07.161Z,66.3769
2024-05-09T02:47:09.843Z,62.7951
2024-05-09T02:48:13.379Z,71.1188
2024-05-09T02:49:14.925Z,68.7758
2024-05-09T02:50:25.998Z,69.1336
2024-05-09T02:51:20.104Z,64.5261
2024-05-09T02:52:22.620Z,64.1538
2024-05-09T02:53:25.270Z,65.5636
2024-05-09T02:54:27.819Z,71.4245
2024-05-09T02:55:30.382Z,65.7760
2024-05-09T02:56:33.027Z,66.4871
2024-05-09T02:57:35.534Z,60.2472
2024-05-09T02:58:38.164Z,65.4101
2024-05-09T02:59:40.720Z,68.0792
2024-05-09T03:00:43.434Z,65.0532
2024-05-09T03:01:46.064Z,66.3937
2024-05-09T03:02:48.619Z,66.2559
2024-05-09T03:03:51.180Z,67.9094
2024-05-09T03:04:53.764Z,71.8984
2024-05-09T03:05:56.387Z,67.6325
2024-05-09T03:06:58.843Z,66.0679
2024-05-09T03:08:01.532Z,64.6470
2024-05-09T03:09:04.000Z,68.8703
2024-05-09T03:10:12.218Z,67.4589
2024-05-09T03:11:09.248Z,66.4468
2024-05-09T03:12:12.015Z,70.9672
2024-05-09T03:13:15.606Z,69.2746
2024-05-09T03:14:17.013Z,58.3792
2024-05-09T03:15:19.478Z,67.2024
2024-05-09T03:16:22.047Z,69.8872
2024-05-09T03:17:24.921Z,68.1738
2024-05-09T03:18:27.380Z,71.6385
2024-05-09T03:19:29.886Z,66.2047
2024-05-09T03:20:34.757Z,68.1011
2024-05-09T03:21:34.994Z,69.4415
2024-05-09T03:22:37.555Z,69.2772
2024-05-09T03:23:40.232Z,64.2027
2024-05-09T03:24:42.728Z,63.2079
2024-05-09T03:25:45.394Z,66.2777
2024-05-09T03:26:47.902Z,67.7538
2024-05-09T03:27:50.484Z,74.7316
2024-05-09T03:28:53.136Z,64.0936
2024-05-09T03:29:55.657Z,69.3482
2024-05-09T03:30:58.234Z,68.9275
2024-05-09T03:32:00.954Z,66.0574
2024-05-09T03:33:03.625Z,70.1763
2024-05-09T03:34:06.183Z,66.7350
2024-05-09T03:35:08.625Z,69.5624
2024-05-09T03:36:11.537Z,67.7136
2024-05-09T03:37:13.784Z,70.4837
2024-05-09T03:38:16.572Z,68.3113
2024-05-09T03:39:18.927Z,68.7297
2024-05-09T03:40:26.358Z,65.1466
2024-05-09T03:41:24.159Z,68.2819
2024-05-09T03:42:26.685Z,63.4626
2024-05-09T03:43:29.253Z,67.7558
2024-05-09T03:44:31.928Z,68.7730
2024-05-09T03:45:34.452Z,65.9873
2024-05-09T03:46:37.034Z,69.9151
2024-05-09T03:47:39.782Z,69.9248
2024-05-09T03:48:42.308Z,66.8057
2024-05-09T03:49:44.862Z,72.1191
2024-05-09T03:50:47.474Z,67.4882
2024-05-09T03:51:49.939Z,67.5837
2024-05-09T03:52:52.655Z,67.6323
2024-05-09T03:53:55.177Z,71.8831
2024-05-09T03:54:57.736Z,67.0935
2024-05-09T03:56:00.394Z,68.6654
2024-05-09T03:57:02.877Z,71.0557
2024-05-09T03:58:05.455Z,66.3718
2024-05-09T03:59:08.089Z,67.4930
2024-05-09T04:00:17.824Z,71.0687
2024-05-09T04:01:13.252Z,68.0828
2024-05-09T04:02:15.864Z,68.7525
2024-05-09T04:03:18.758Z,70.4212
2024-05-09T04:04:21.090Z,66.6572
2024-05-09T04:05:23.562Z,68.9139
2024-05-09T04:06:26.176Z,65.2764
2024-05-09T04:07:28.773Z,65.6939
2024-05-09T04:08:31.367Z,67.3579
2024-05-09T04:09:33.903Z,67.7152
2024-05-09T04:10:36.472Z,62.2519
2024-05-09T04:11:39.156Z,68.1870
2024-05-09T04:12:41.666Z,67.9622
2024-05-09T04:13:44.261Z,65.7289
2024-05-09T04:14:46.823Z,63.9104
2024-05-09T04:15:49.406Z,65.4905
2024-05-09T04:16:52.076Z,65.7692
2024-05-09T04:17:54.922Z,67.3832
2024-05-09T04:18:57.270Z,65.3909
2024-05-09T04:19:59.787Z,68.7874
2024-05-09T04:21:02.501Z,66.1169
2024-05-09T04:22:04.912Z,62.1405
2024-05-09T04:23:08.603Z,64.4556
2024-05-09T04:24:10.066Z,67.4458
2024-05-09T04:25:12.683Z,67.0532
2024-05-09T04:26:15.266Z,68.2511
2024-05-09T04:27:17.871Z,67.4502
2024-05-09T04:28:20.400Z,68.9646
2024-05-09T04:29:23.041Z,68.6927
2024-05-09T04:30:34.035Z,72.1356
2024-05-09T04:31:28.166Z,69.8787
2024-05-09T04:32:30.954Z,70.5303
2024-05-09T04:33:33.575Z,68.3862
2024-05-09T04:34:36.031Z,69.8056
2024-05-09T04:35:38.913Z,63.3405
2024-05-09T04:36:43.861Z,67.8827
2024-05-09T04:37:43.762Z,66.6104
2024-05-09T04:38:46.310Z,66.0990
2024-05-09T04:39:48.843Z,69.7089
2024-05-09T04:40:51.529Z,67.4369
2024-05-09T04:41:54.018Z,66.7050
2024-05-09T04:42:56.610Z,68.8143
2024-05-09T04:43:59.206Z,66.5123
2024-05-09T04:45:01.764Z,65.2751
2024-05-09T04:46:04.345Z,64.6622
2024-05-09T04:47:06.984Z,70.2021
2024-05-09T04:48:09.806Z,72.3673
2024-05-09T04:49:12.214Z,71.7922
2024-05-09T04:50:20.987Z,65.5806
2024-05-09T04:51:17.323Z,63.0711
2024-05-09T04:52:19.889Z,70.9779
2024-05-09T04:53:22.512Z,71.8820
2024-05-09T04:54:33.809Z,69.5374
2024-05-09T04:55:27.677Z,69.0075
2024-05-09T04:56:30.234Z,65.2770
2024-05-09T04:57:32.785Z,68.5089
2024-05-09T04:58:35.371Z,67.5563
2024-05-09T04:59:38.018Z,68.1442
2024-05-09T05:00:41.326Z,66.5238
2024-05-09T05:01:43.118Z,69.7111
2024-05-09T05:02:45.784Z,68.8411
2024-05-09T05:03:48.420Z,63.9322
2024-05-09T05:04:51.021Z,67.4901
2024-05-09T05:05:53.512Z,67.7880
2024-05-09T05:06:57.779Z,68.8483
2024-05-09T05:07:58.695Z,64.9253
2024-05-09T05:09:01.245Z,66.0664
2024-05-09T05:10:05.749Z,68.8332
2024-05-09T05:11:06.447Z,66.6333
2024-05-09T05:12:09.165Z,63.2676
2024-05-09T05:13:11.577Z,63.4405
2024-05-09T05:14:14.180Z,70.9661
2024-05-09T05:15:16.732Z,64.6295
2024-05-09T05:16:19.322Z,73.7042
2024-05-09T05:17:22.010Z,67.7814
2024-05-09T05:18:24.650Z,70.9533
2024-05-09T05:19:27.299Z,71.4900
2024-05-09T05:20:33.593Z,68.6967
2024-05-09T05:21:32.334Z,69.6840
2024-05-09T05:22:34.870Z,66.3581
2024-05-09T05:23:37.505Z,74.0858
2024-05-09T05:24:39.991Z,70.3507
2024-05-09T05:25:42.585Z,70.2994
2024-05-09T05:26:45.193Z,70.3925
2024-05-09T05:27:47.743Z,67.0150
2024-05-09T05:28:50.377Z,65.7607
2024-05-09T05:29:52.941Z,65.6312
2024-05-09T05:30:55.522Z,66.3882
2024-05-09T05:31:58.210Z,69.1991
2024-05-09T05:33:01.001Z,64.9863
2024-05-09T05:34:03.355Z,69.7853
2024-05-09T05:35:05.913Z,65.7032
2024-05-09T05:36:08.466Z,66.4181
2024-05-09T05:37:11.008Z,67.5290
2024-05-09T05:38:13.657Z,61.9799
2024-05-09T05:39:16.249Z,66.9363
2024-05-09T05:40:28.014Z,67.4277
2024-05-09T05:41:21.432Z,64.7593
2024-05-09T05:42:24.004Z,65.8621
2024-05-09T05:43:26.591Z,65.4826
2024-05-09T05:44:29.306Z,66.4664
2024-05-09T05:45:31.757Z,69.2606
2024-05-09T05:46:34.359Z,70.5291
2024-05-09T05:47:37.043Z,67.3787
2024-05-09T05:48:39.795Z,69.0366
2024-05-09T05:49:42.139Z,69.6330
2024-05-09T05:50:44.779Z,67.2887
2024-05-09T05:51:47.314Z,66.1829
2024-05-09T05:52:49.882Z,69.9464
2024-05-09T05:53:52.459Z,67.4205
2024-05-09T05:54:55.048Z,72.3306
2024-05-09T05:55:57.682Z,69.8438
2024-05-09T05:57:00.216Z,70.7428
2024-05-09T05:58:02.875Z,65.9916
2024-05-09T05:59:05.417Z,70.1466
2024-05-09T06:00:09.782Z,69.6390
2024-05-09T06:01:10.562Z,70.5882
2024-05-09T06:02:13.230Z,70.4657
2024-05-09T06:03:15.838Z,70.7269
2024-05-09T06:04:18.455Z,70.7700
2024-05-09T06:05:20.898Z,68.7995
2024-05-09T06:06:23.469Z,66.7938
2024-05-09T06:07:26.031Z,67.7927
2024-05-09T06:08:30.532Z,69.5605
2024-05-09T06:09:31.276Z,65.8630
2024-05-09T06:10:38.868Z,66.9187
2024-05-09T06:11:36.434Z,72.2992
2024-05-09T06:12:38.969Z,67.3125
2024-05-09T06:13:41.537Z,72.3997
2024-05-09T06:14:44.123Z,71.1647
2024-05-09T06:15:46.720Z,68.4146
2024-05-09T06:16:49.337Z,70.7388
2024-05-09T06:17:51.999Z,69.6679
2024-05-09T06:18:54.688Z,68.9723
2024-05-09T06:19:57.074Z,66.5668
2024-05-09T06:20:59.679Z,64.4242
2024-05-09T06:22:02.218Z,69.3035
2024-05-09T06:23:05.062Z,70.8496
2024-05-09T06:24:07.384Z,71.7641
2024-05-09T06:25:09.983Z,72.5409
2024-05-09T06:26:12.583Z,72.3431
2024-05-09T06:27:15.146Z,73.5951
2024-05-09T06:28:17.710Z,72.0752
2024-05-09T06:29:20.341Z,72.6311
2024-05-09T06:30:30.277Z,71.2085
2024-05-09T06:31:25.476Z,69.8504
2024-05-09T06:32:28.237Z,67.0361
2024-05-09T06:33:30.853Z,70.6860
2024-05-09T06:34:33.387Z,67.8153
2024-05-09T06:35:36.114Z,73.4627
2024-05-09T06:36:38.514Z,73.0162
2024-05-09T06:37:40.968Z,68.8250
2024-05-09T06:38:43.566Z,73.8271
2024-05-09T06:39:46.136Z,72.2648
2024-05-09T06:40:48.783Z,70.3082
2024-05-09T06:41:51.317Z,75.9192
2024-05-09T06:42:53.881Z,70.9952
2024-05-09T06:43:56.513Z,68.4374
2024-05-09T06:44:59.072Z,67.4627
2024-05-09T06:46:01.663Z,70.2109
2024-05-09T06:47:04.324Z,68.3786
2024-05-09T06:48:07.080Z,67.3482
2024-05-09T06:49:09.560Z,67.6613
2024-05-09T06:50:20.217Z,68.0770
2024-05-09T06:51:14.729Z,67.2604
2024-05-09T06:52:17.157Z,67.4870
2024-05-09T06:53:19.755Z,72.0337
2024-05-09T06:54:22.331Z,72.7624
2024-05-09T06:55:24.891Z,72.5722
2024-05-09T06:56:27.518Z,67.8240
2024-05-09T06:57:30.075Z,73.2104
2024-05-09T06:58:32.649Z,66.2738
2024-05-09T06:59:35.380Z,69.6465
2024-05-09T07:00:40.340Z,66.7809
2024-05-09T07:01:40.483Z,71.4255
2024-05-09T07:02:43.116Z,66.9339
2024-05-09T07:03:45.733Z,70.2835
2024-05-09T07:04:48.244Z,66.6798
2024-05-09T07:05:50.757Z,68.0046
2024-05-09T07:06:53.370Z,67.4402
2024-05-09T07:07:55.916Z,68.5477
2024-05-09T07:08:58.527Z,68.0608
2024-05-09T07:10:01.086Z,70.5928
2024-05-09T07:11:03.809Z,66.9152
2024-05-09T07:12:06.373Z,70.0077
2024-05-09T07:13:08.823Z,71.9885
2024-05-09T07:14:11.495Z,72.0941
2024-05-09T07:15:13.984Z,68.7386
2024-05-09T07:16:16.625Z,68.4914
2024-05-09T07:17:19.269Z,66.1243
2024-05-09T07:18:21.941Z,67.5437
2024-05-09T07:19:24.576Z,71.8224
2024-05-09T07:20:34.085Z,69.1270
2024-05-09T07:21:29.485Z,69.5248
2024-05-09T07:22:32.064Z,69.7905
2024-05-09T07:23:34.815Z,66.8569
2024-05-09T07:24:37.240Z,65.7703
2024-05-09T07:25:39.832Z,64.2709
2024-05-09T07:26:42.463Z,67.6411
2024-05-09T07:27:44.972Z,71.0877
2024-05-09T07:28:47.618Z,70.4391
2024-05-09T07:29:50.134Z,68.4386
2024-05-09T07:30:52.729Z,68.3481
2024-05-09T07:31:55.343Z,65.9664
2024-05-09T07:32:58.115Z,68.3956
2024-05-09T07:34:00.705Z,66.6820
2024-05-09T07:35:03.182Z,67.1709
2024-05-09T07:36:05.657Z,66.0400
2024-05-09T07:37:08.262Z,62.7663
2024-05-09T07:38:10.862Z,62.4884
2024-05-09T07:39:13.367Z,62.7150
2024-05-09T07:40:24.882Z,62.1907
2024-05-09T07:41:18.594Z,64.2231
2024-05-09T07:42:21.126Z,66.3496
2024-05-09T07:43:23.743Z,66.5995
2024-05-09T07:44:26.285Z,66.3752
2024-05-09T07:45:45.219Z,64.2982
2024-05-09T07:47:37.114Z,68.0595
2024-05-09T07:50:34.437Z,64.8151
2024-05-09T07:53:14.438Z,61.4168
2024-05-09T07:53:34.619Z,59.3991
2024-05-09T07:53:52.382Z,64.1865
2024-05-09T07:54:52.293Z,64.0751
2024-05-09T07:55:55.248Z,67.5300
2024-05-09T07:56:57.564Z,66.2100
2024-05-09T07:57:59.914Z,66.0015
2024-05-09T07:59:02.457Z,64.7653
2024-05-09T08:00:06.655Z,69.4915
2024-05-09T08:01:07.715Z,65.8313
2024-05-09T08:02:10.374Z,66.8676
2024-05-09T08:03:12.859Z,63.4801
2024-05-09T08:04:15.469Z,64.2299
2024-05-09T08:05:18.102Z,62.2679
2024-05-09T08:06:20.538Z,60.5922
2024-05-09T08:07:23.192Z,67.3307
2024-05-09T08:08:25.722Z,65.9494
2024-05-09T08:09:28.339Z,67.8641
2024-05-09T08:10:30.960Z,58.6785
2024-05-09T08:11:33.504Z,61.3598
2024-05-09T08:12:36.099Z,59.8819
2024-05-09T08:13:38.725Z,60.2345
2024-05-09T08:14:41.213Z,63.3231
2024-05-09T08:15:43.896Z,61.3726
2024-05-09T08:16:46.390Z,63.1313
2024-05-09T08:17:49.063Z,66.4780
2024-05-09T08:18:51.671Z,63.0118
2024-05-09T08:19:54.136Z,60.7229
2024-05-09T08:20:56.719Z,55.9434
2024-05-09T08:21:59.341Z,63.2102
2024-05-09T08:23:01.887Z,63.4711
2024-05-09T08:24:04.485Z,84.5982
2024-05-09T08:25:07.076Z,153.5984
2024-05-09T08:26:09.639Z,235.5462
2024-05-09T08:27:12.242Z,324.6675
2024-05-09T08:28:14.852Z,443.4905
2024-05-09T08:29:17.407Z,480.9593
2024-05-09T08:30:25.304Z,525.8708
2024-05-09T08:31:22.792Z,589.7358
2024-05-09T08:32:25.185Z,443.7077
2024-05-09T08:33:27.835Z,597.4305
2024-05-09T08:34:30.358Z,538.5240
2024-05-09T08:35:32.934Z,505.5984
2024-05-09T08:36:35.513Z,466.4792
2024-05-09T08:37:40.483Z,478.7680
2024-05-09T08:38:40.656Z,473.9883
2024-05-09T08:39:43.258Z,605.4930
2024-05-09T08:40:45.898Z,871.2789
2024-05-09T08:41:48.398Z,723.4165
2024-05-09T08:42:51.003Z,544.2567
2024-05-09T08:43:53.562Z,525.3622
2024-05-09T08:44:56.133Z,448.9445
2024-05-09T08:45:58.766Z,462.6458
2024-05-09T08:47:01.385Z,550.0144
2024-05-09T08:48:04.070Z,546.9061
2024-05-09T08:49:06.642Z,560.6140
2024-05-09T08:50:13.783Z,586.1315
2024-05-09T08:51:11.641Z,527.0402
2024-05-09T08:52:14.229Z,533.8046
2024-05-09T08:53:16.822Z,568.5988
2024-05-09T08:54:19.395Z,555.0103
2024-05-09T08:55:21.994Z,564.6981
2024-05-09T08:56:24.600Z,572.7720
2024-05-09T08:57:27.228Z,614.0582
2024-05-09T08:58:29.721Z,635.7365
2024-05-09T08:59:32.340Z,618.0270
2024-05-09T09:00:37.310Z,570.1271
2024-05-09T09:01:38.136Z,586.6002
2024-05-09T09:02:40.250Z,606.7014
2024-05-09T09:03:42.848Z,628.3019
2024-05-09T09:04:45.295Z,662.2070
2024-05-09T09:05:47.839Z,665.4453
2024-05-09T09:06:51.453Z,649.9948
2024-05-09T09:07:52.975Z,610.8273
2024-05-09T09:08:55.550Z,578.4598
2024-05-09T09:09:58.154Z,566.9155
2024-05-09T09:11:00.761Z,535.2616
2024-05-09T09:12:03.327Z,567.6718
2024-05-09T09:13:05.932Z,601.2541
2024-05-09T09:14:08.484Z,593.8141
2024-05-09T09:15:11.076Z,598.3613
2024-05-09T09:16:13.750Z,551.1176
2024-05-09T09:17:16.338Z,552.7932
2024-05-09T09:18:19.292Z,512.3406
2024-05-09T09:19:21.581Z,549.1308
2024-05-09T09:20:29.402Z,482.6779
2024-05-09T09:21:26.773Z,456.2595
2024-05-09T09:22:29.164Z,446.2854
2024-05-09T09:23:31.880Z,428.9488
2024-05-09T09:24:34.373Z,459.1699
2024-05-09T09:25:36.920Z,430.7060
2024-05-09T09:26:39.503Z,425.3329
2024-05-09T09:27:42.167Z,417.2135
2024-05-09T09:28:44.669Z,430.2046
2024-05-09T09:29:47.293Z,403.9469
2024-05-09T09:30:49.905Z,462.4387
2024-05-09T09:31:52.445Z,461.7271
2024-05-09T09:32:55.123Z,423.2887
2024-05-09T09:33:57.936Z,416.6519
2024-05-09T09:35:00.237Z,472.4221
2024-05-09T09:36:02.753Z,460.5891
2024-05-09T09:37:05.404Z,426.6282
2024-05-09T09:38:07.992Z,455.4681
2024-05-09T09:39:10.560Z,466.4036
2024-05-09T09:40:13.468Z,481.6003
2024-05-09T09:41:15.758Z,460.6539
2024-05-09T09:42:18.265Z,445.3116
2024-05-09T09:43:21.177Z,428.6517
2024-05-09T09:44:23.412Z,464.4934
2024-05-09T09:45:26.053Z,470.4291
2024-05-09T09:46:28.740Z,459.4719
2024-05-09T09:47:31.300Z,447.6341
2024-05-09T09:48:34.080Z,483.4170
2024-05-09T09:49:36.411Z,457.8950
2024-05-09T09:50:38.965Z,446.4761
2024-05-09T09:51:41.608Z,463.0641
2024-05-09T09:52:44.123Z,479.3969
2024-05-09T09:53:46.748Z,500.4139
2024-05-09T09:54:49.381Z,492.4489
2024-05-09T09:55:51.897Z,483.4585
2024-05-09T09:56:54.453Z,483.7842
2024-05-09T09:57:57.112Z,487.6271
2024-05-09T09:58:59.621Z,474.0923
2024-05-09T10:00:03.119Z,464.4180
2024-05-09T10:01:04.986Z,474.8702
2024-05-09T10:02:07.600Z,483.4527
2024-05-09T10:03:10.133Z,483.4818
2024-05-09T10:04:12.692Z,441.1869
2024-05-09T10:05:15.160Z,428.8423
2024-05-09T10:06:17.681Z,415.2184
2024-05-09T10:07:20.354Z,398.0460
2024-05-09T10:08:22.858Z,415.0377
2024-05-09T10:09:25.473Z,414.0896
2024-05-09T10:10:32.317Z,404.8899
2024-05-09T10:11:31.679Z,414.7058
2024-05-09T10:12:33.267Z,445.4919
2024-05-09T10:13:35.863Z,439.6841
2024-05-09T10:14:38.342Z,411.9033
2024-05-09T10:15:40.966Z,389.8619
2024-05-09T10:16:43.528Z,378.1845
2024-05-09T10:17:46.150Z,392.1326
2024-05-09T10:18:48.861Z,394.7545
2024-05-09T10:19:51.389Z,379.6700
2024-05-09T10:20:53.826Z,388.8507
2024-05-09T10:21:56.427Z,361.0898
2024-05-09T10:22:59.055Z,361.9002
2024-05-09T10:24:01.583Z,334.5150
2024-05-09T10:25:05.108Z,346.8095
2024-05-09T10:26:06.748Z,364.5486
2024-05-09T10:27:09.400Z,354.3742
2024-05-09T10:28:12.081Z,345.6038
2024-05-09T10:29:14.517Z,365.4015
2024-05-09T10:30:25.816Z,395.8474
2024-05-09T10:31:19.683Z,419.7401
2024-05-09T10:32:22.363Z,408.0208
2024-05-09T10:33:24.987Z,406.6143
2024-05-09T10:34:27.632Z,374.9258
2024-05-09T10:35:30.023Z,350.7308
2024-05-09T10:36:32.644Z,331.7294
2024-05-09T10:37:35.236Z,312.4637
2024-05-09T10:38:37.748Z,358.4305
2024-05-09T10:39:40.359Z,356.0648
2024-05-09T10:40:42.964Z,347.3607
2024-05-09T10:41:45.493Z,358.8037
2024-05-09T10:42:48.183Z,334.8754
2024-05-09T10:43:50.705Z,332.3367
2024-05-09T10:44:53.338Z,343.7792
2024-05-09T10:45:55.856Z,347.8371
2024-05-09T10:46:58.437Z,357.0077
2024-05-09T10:48:01.163Z,351.8263
2024-05-09T10:49:06.294Z,328.5867
2024-05-09T10:50:12.710Z,331.9154
2024-05-09T10:51:08.744Z,362.3892
2024-05-09T10:52:11.350Z,361.8705
2024-05-09T10:53:13.895Z,349.4858
2024-05-09T10:54:16.509Z,329.8560
2024-05-09T10:55:19.285Z,317.1526
2024-05-09T10:56:21.663Z,316.4453
2024-05-09T10:57:24.230Z,312.5863
2024-05-09T10:58:26.805Z,292.6388
2024-05-09T10:59:29.400Z,319.1367
2024-05-09T11:00:35.863Z,340.1985
2024-05-09T11:01:34.639Z,342.1054
2024-05-09T11:02:37.291Z,341.8259
2024-05-09T11:03:40.127Z,336.1351
2024-05-09T11:04:42.485Z,343.1843
2024-05-09T11:05:45.094Z,338.6348
2024-05-09T11:06:47.532Z,339.3794
2024-05-09T11:07:50.071Z,339.1649
2024-05-09T11:08:52.649Z,328.9067
2024-05-09T11:09:55.301Z,336.5360
2024-05-09T11:10:57.855Z,328.3950
2024-05-09T11:12:00.463Z,330.9263
2024-05-09T11:13:03.048Z,333.4473
2024-05-09T11:14:05.565Z,305.6460
2024-05-09T11:15:08.180Z,318.4597
2024-05-09T11:16:10.801Z,312.8345
2024-05-09T11:17:13.322Z,313.4586
2024-05-09T11:18:16.063Z,307.6644
2024-05-09T11:19:18.673Z,304.7913
2024-05-09T11:20:26.942Z,314.5166
2024-05-09T11:21:23.652Z,313.3043
2024-05-09T11:22:26.289Z,299.8658
2024-05-09T11:23:28.804Z,316.3736
2024-05-09T11:24:31.407Z,312.8401
2024-05-09T11:25:33.975Z,307.9982
2024-05-09T11:26:36.612Z,300.4279
2024-05-09T11:27:39.184Z,314.7330
2024-05-09T11:28:41.734Z,320.1418
2024-05-09T11:29:44.315Z,320.4976
2024-05-09T11:30:46.983Z,307.7455
2024-05-09T11:31:49.668Z,315.2192
2024-05-09T11:32:52.298Z,315.7422
2024-05-09T11:33:54.846Z,322.1501
2024-05-09T11:34:57.244Z,308.5340
2024-05-09T11:35:59.823Z,310.2938
2024-05-09T11:37:02.494Z,303.3739
2024-05-09T11:38:04.995Z,299.8670
2024-05-09T11:39:07.593Z,292.4756
2024-05-09T11:40:16.814Z,288.5880
2024-05-09T11:41:12.774Z,301.5267
2024-05-09T11:42:15.326Z,292.5019
2024-05-09T11:43:18.053Z,294.8718
2024-05-09T11:44:20.523Z,298.6746
2024-05-09T11:45:23.148Z,290.9912
2024-05-09T11:46:25.819Z,296.7391
2024-05-09T11:47:28.289Z,299.8376
2024-05-09T11:48:31.148Z,287.1905
2024-05-09T11:49:33.563Z,285.8253
2024-05-09T11:50:36.444Z,288.1379
2024-05-09T11:51:38.637Z,282.1858
2024-05-09T11:52:41.164Z,285.7714
2024-05-09T11:53:43.762Z,290.2318
2024-05-09T11:54:46.381Z,282.3803
2024-05-09T11:55:48.946Z,283.3493
2024-05-09T11:56:51.604Z,275.8903
2024-05-09T11:57:54.097Z,278.3484
2024-05-09T11:58:56.664Z,269.3663
2024-05-09T11:59:59.249Z,269.1031
2024-05-09T12:01:01.979Z,265.4664
2024-05-09T12:02:04.589Z,267.6575
2024-05-09T12:03:07.099Z,273.6174
2024-05-09T12:04:09.699Z,265.9042
2024-05-09T12:05:12.246Z,268.5609
2024-05-09T12:06:14.769Z,276.5456
2024-05-09T12:07:17.439Z,273.3852
2024-05-09T12:08:19.934Z,267.3463
2024-05-09T12:09:22.494Z,268.9973
2024-05-09T12:10:32.125Z,265.8892
2024-05-09T12:11:27.703Z,267.0376
2024-05-09T12:12:30.302Z,254.0076
2024-05-09T12:13:32.957Z,257.3413
2024-05-09T12:14:35.447Z,265.5650
2024-05-09T12:15:38.879Z,262.0981
2024-05-09T12:16:40.653Z,247.9511
2024-05-09T12:17:43.288Z,253.0596
2024-05-09T12:18:45.904Z,249.3271
2024-05-09T12:19:48.419Z,243.1681
2024-05-09T12:20:50.949Z,253.1392
2024-05-09T12:21:53.553Z,256.8182
2024-05-09T12:22:56.099Z,244.0601
2024-05-09T12:23:58.679Z,237.3611
2024-05-09T12:25:01.316Z,232.9246
2024-05-09T12:26:03.868Z,244.4490
2024-05-09T12:27:06.457Z,226.3099
2024-05-09T12:28:09.198Z,227.3750
2024-05-09T12:29:11.622Z,222.8405
2024-05-09T12:30:20.729Z,225.8689
2024-05-09T12:31:16.807Z,228.3694
2024-05-09T12:32:19.420Z,238.4809